createdAt,value
2018-04-10T00:00:55.259Z,14.58
2018-04-10T00:03:23.007Z,14.50
2018-04-10T00:05:50.844Z,14.46
2018-04-10T00:08:18.422Z,14.50
2018-04-10T00:10:45.973Z,14.46
2018-04-10T00:13:13.544Z,14.40
2018-04-10T00:15:41.105Z,14.39
2018-04-10T00:18:08.934Z,14.37
2018-04-10T00:20:36.652Z,14.41
2018-04-10T00:23:04.371Z,14.37
2018-04-10T00:25:32.183Z,14.34
2018-04-10T00:27:59.740Z,14.38
2018-04-10T00:30:27.296Z,14.31
2018-04-10T00:32:55.010Z,14.33
2018-04-10T00:35:22.866Z,14.31
2018-04-10T00:37:50.679Z,14.26
2018-04-10T00:40:18.300Z,14.28
2018-04-10T00:42:46.015Z,14.32
2018-04-10T00:45:13.563Z,14.31
2018-04-10T00:47:41.125Z,14.24
2018-04-10T00:50:08.661Z,14.18
2018-04-10T00:52:36.239Z,14.26
2018-04-10T00:55:03.804Z,14.27
2018-04-10T00:57:31.523Z,14.22
2018-04-10T00:59:59.076Z,14.17
2018-04-10T01:02:26.808Z,14.10
2018-04-10T01:04:54.551Z,14.09
2018-04-10T01:07:22.113Z,14.04
2018-04-10T01:09:49.698Z,14.05
2018-04-10T01:12:17.399Z,13.94
2018-04-10T01:14:45.114Z,13.76
2018-04-10T01:17:12.831Z,13.63
2018-04-10T01:19:40.396Z,13.53
2018-04-10T01:22:07.948Z,13.47
2018-04-10T01:24:35.614Z,13.42
2018-04-10T01:27:03.176Z,13.44
2018-04-10T01:29:30.731Z,13.45
2018-04-10T01:31:58.289Z,13.49
2018-04-10T01:34:25.847Z,13.45
2018-04-10T01:36:53.399Z,13.40
2018-04-10T01:39:20.962Z,13.38
2018-04-10T01:41:48.722Z,13.33
2018-04-10T01:44:16.440Z,13.32
2018-04-10T01:46:44.081Z,13.29
2018-04-10T01:49:11.900Z,13.27
2018-04-10T01:51:39.504Z,13.18
2018-04-10T01:54:07.236Z,13.21
2018-04-10T01:56:34.792Z,13.17
2018-04-10T01:59:02.357Z,13.08
2018-04-10T02:01:29.909Z,13.00
2018-04-10T02:03:57.471Z,12.98
2018-04-10T02:06:25.226Z,12.96
2018-04-10T02:08:53.044Z,12.89
2018-04-10T02:11:20.608Z,12.82
2018-04-10T02:13:48.381Z,12.79
2018-04-10T02:16:16.200Z,12.66
2018-04-10T02:18:43.918Z,12.59
2018-04-10T02:21:11.480Z,12.60
2018-04-10T02:23:39.031Z,12.60
2018-04-10T02:26:06.650Z,12.57
2018-04-10T02:28:34.208Z,12.54
2018-04-10T02:31:01.767Z,12.50
2018-04-10T02:33:29.331Z,12.44
2018-04-10T02:35:56.885Z,12.39
2018-04-10T02:38:24.661Z,12.33
2018-04-10T02:40:52.232Z,12.28
2018-04-10T02:43:20.009Z,12.20
2018-04-10T02:45:47.565Z,12.11
2018-04-10T02:48:15.120Z,12.06
2018-04-10T02:50:42.684Z,11.97
2018-04-10T02:53:10.469Z,11.85
2018-04-10T02:55:38.288Z,11.82
2018-04-10T02:58:05.858Z,11.73
2018-04-10T03:00:33.476Z,11.70
2018-04-10T03:03:01.221Z,11.69
2018-04-10T03:05:28.824Z,11.61
2018-04-10T03:07:56.553Z,11.47
2018-04-10T03:10:24.296Z,11.41
2018-04-10T03:12:51.871Z,11.38
2018-04-10T03:15:19.480Z,11.39
2018-04-10T03:17:47.084Z,11.31
2018-04-10T03:20:14.640Z,11.27
2018-04-10T03:22:42.296Z,11.24
2018-04-10T03:25:10.104Z,11.13
2018-04-10T03:27:37.923Z,11.10
2018-04-10T03:30:05.743Z,11.11
2018-04-10T03:32:33.300Z,10.99
2018-04-10T03:35:01.044Z,10.95
2018-04-10T03:37:28.777Z,10.87
2018-04-10T03:39:56.335Z,10.77
2018-04-10T03:42:23.954Z,10.69
2018-04-10T03:44:51.586Z,10.61
2018-04-10T03:47:19.144Z,10.63
2018-04-10T03:49:46.704Z,10.61
2018-04-10T03:52:14.503Z,10.67
2018-04-10T03:54:42.116Z,10.64
2018-04-10T03:57:09.726Z,10.58
2018-04-10T03:59:37.457Z,10.56
2018-04-10T04:02:05.067Z,10.43
2018-04-10T04:04:32.616Z,10.44
2018-04-10T04:07:00.188Z,10.35
2018-04-10T04:12:00.761Z,10.56
2018-04-10T04:14:28.484Z,10.62
2018-04-10T04:17:08.024Z,10.72
2018-04-10T04:19:47.503Z,10.72
2018-04-10T04:22:26.861Z,10.66
2018-04-10T04:24:54.471Z,10.64
2018-04-10T04:27:22.092Z,10.68
2018-04-10T04:29:49.655Z,10.82
2018-04-10T04:32:17.215Z,10.98
2018-04-10T04:34:44.836Z,11.19
2018-04-10T04:37:12.464Z,11.48
2018-04-10T04:39:40.068Z,11.83
2018-04-10T04:42:07.673Z,12.27
2018-04-10T04:44:35.284Z,12.65
2018-04-10T04:47:02.840Z,13.05
2018-04-10T04:49:30.406Z,13.53
2018-04-10T04:51:58.176Z,14.02
2018-04-10T04:54:25.743Z,14.52
2018-04-10T04:56:53.404Z,15.09
2018-04-10T04:59:21.132Z,15.56
2018-04-10T05:01:48.715Z,16.23
2018-04-10T05:04:16.347Z,16.79
2018-04-10T05:06:43.979Z,17.41
2018-04-10T05:09:11.710Z,18.41
2018-04-10T05:11:39.520Z,19.61
2018-04-10T05:14:07.096Z,20.49
2018-04-10T05:16:34.651Z,21.33
2018-04-10T05:19:02.224Z,21.46
2018-04-10T05:21:29.972Z,21.35
2018-04-10T05:23:58.076Z,21.58
2018-04-10T05:26:25.693Z,22.29
2018-04-10T05:28:54.879Z,23.26
2018-04-10T05:31:22.746Z,24.13
2018-04-10T05:33:51.136Z,25.04
2018-04-10T05:36:19.136Z,25.76
2018-04-10T05:38:46.820Z,26.20
2018-04-10T05:41:15.258Z,26.65
2018-04-10T05:43:43.336Z,26.84
2018-04-10T05:46:11.117Z,26.80
2018-04-10T05:48:38.732Z,27.08
2018-04-10T05:51:07.198Z,27.39
2018-04-10T05:53:34.768Z,27.72
2018-04-10T05:56:02.324Z,28.42
2018-04-10T05:58:30.511Z,28.98
2018-04-10T06:00:58.417Z,29.02
2018-04-10T06:03:25.977Z,28.97
2018-04-10T06:05:53.576Z,28.89
2018-04-10T06:08:21.391Z,28.83
2018-04-10T06:10:48.964Z,28.85
2018-04-10T06:13:16.524Z,29.28
2018-04-10T06:15:44.124Z,29.55
2018-04-10T06:18:11.718Z,29.67
2018-04-10T06:20:39.467Z,30.17
2018-04-10T06:23:07.667Z,30.58
2018-04-10T06:25:37.132Z,31.16
2018-04-10T06:28:05.364Z,31.71
2018-04-10T06:30:33.704Z,31.62
2018-04-10T06:33:01.520Z,31.64
2018-04-10T06:35:29.130Z,31.48
2018-04-10T06:37:56.696Z,30.67
2018-04-10T06:40:24.269Z,30.50
2018-04-10T06:42:52.278Z,30.73
2018-04-10T06:45:19.920Z,30.80
2018-04-10T06:47:47.468Z,31.43
2018-04-10T06:50:15.189Z,31.16
2018-04-10T06:52:43.115Z,31.30
2018-04-10T06:55:10.917Z,31.20
2018-04-10T06:57:39.930Z,30.96
2018-04-10T07:00:08.056Z,30.82
2018-04-10T07:02:35.873Z,30.87
2018-04-10T07:05:03.976Z,30.95
2018-04-10T07:07:32.168Z,30.40
2018-04-10T07:09:59.910Z,29.91
2018-04-10T07:12:27.472Z,30.05
2018-04-10T07:14:55.270Z,30.75
2018-04-10T07:17:22.875Z,31.02
2018-04-10T07:19:50.465Z,31.75
2018-04-10T07:22:18.044Z,32.37
2018-04-10T07:24:45.627Z,32.06
2018-04-10T07:27:13.459Z,32.30
2018-04-10T07:29:41.020Z,32.22
2018-04-10T07:32:09.321Z,32.21
2018-04-10T07:34:37.117Z,31.62
2018-04-10T07:37:04.836Z,31.81
2018-04-10T07:39:32.403Z,32.09
2018-04-10T07:42:00.227Z,32.52
2018-04-10T07:44:27.959Z,32.80
2018-04-10T07:46:55.520Z,32.80
2018-04-10T07:49:23.147Z,32.42
2018-04-10T07:51:50.709Z,32.15
2018-04-10T07:54:18.427Z,31.75
2018-04-10T07:56:45.984Z,31.35
2018-04-10T07:59:13.589Z,31.46
2018-04-10T08:01:41.314Z,31.57
2018-04-10T08:04:08.892Z,31.36
2018-04-10T08:06:36.652Z,31.89
2018-04-10T08:09:04.362Z,32.22
2018-04-10T08:11:31.978Z,32.33
2018-04-10T08:13:59.528Z,31.89
2018-04-10T08:16:27.324Z,31.87
2018-04-10T08:18:55.145Z,32.29
2018-04-10T08:21:22.961Z,31.89
2018-04-10T08:23:50.564Z,31.68
2018-04-10T08:26:18.297Z,31.99
2018-04-10T08:28:46.195Z,32.56
2018-04-10T08:31:13.813Z,32.83
2018-04-10T08:33:41.651Z,33.07
2018-04-10T08:36:09.370Z,32.55
2018-04-10T08:38:36.919Z,32.44
2018-04-10T08:41:04.806Z,32.35
2018-04-10T08:43:33.138Z,32.62
2018-04-10T08:46:00.704Z,32.50
2018-04-10T08:48:28.256Z,32.25
2018-04-10T08:50:55.828Z,33.01
2018-04-10T08:53:23.600Z,32.87
2018-04-10T08:55:51.254Z,32.95
2018-04-10T08:58:18.843Z,32.65
2018-04-10T09:00:46.420Z,32.24
2018-04-10T09:03:13.988Z,32.75
2018-04-10T09:05:41.790Z,32.74
2018-04-10T09:08:09.375Z,32.66
2018-04-10T09:10:36.949Z,32.30
2018-04-10T09:13:04.742Z,32.55
2018-04-10T09:15:32.562Z,31.77
2018-04-10T09:18:00.112Z,32.57
2018-04-10T09:20:27.687Z,32.84
2018-04-10T09:22:55.419Z,33.22
2018-04-10T09:25:23.132Z,32.97
2018-04-10T09:27:50.719Z,32.96
2018-04-10T09:30:18.310Z,32.99
2018-04-10T09:32:46.087Z,32.17
2018-04-10T09:35:13.753Z,32.06
2018-04-10T09:37:41.316Z,32.04
2018-04-10T09:40:09.134Z,32.23
2018-04-10T09:42:36.713Z,32.51
2018-04-10T09:45:04.289Z,32.61
2018-04-10T09:47:31.894Z,31.97
2018-04-10T09:49:59.456Z,31.92
2018-04-10T09:52:27.017Z,32.58
2018-04-10T09:54:54.753Z,33.31
2018-04-10T09:57:22.569Z,33.09
2018-04-10T09:59:50.140Z,32.83
2018-04-10T10:02:17.867Z,32.92
2018-04-10T10:04:45.440Z,32.88
2018-04-10T10:07:12.992Z,31.48
2018-04-10T10:09:40.576Z,30.77
2018-04-10T10:12:08.184Z,30.56
2018-04-10T10:14:35.998Z,30.76
2018-04-10T10:17:03.720Z,31.71
2018-04-10T10:19:31.379Z,31.98
2018-04-10T10:21:58.945Z,32.01
2018-04-10T10:24:26.832Z,32.12
2018-04-10T10:26:54.821Z,32.11
2018-04-10T10:29:22.505Z,31.89
2018-04-10T10:31:50.086Z,32.03
2018-04-10T10:34:17.813Z,32.61
2018-04-10T10:36:45.379Z,32.67
2018-04-10T10:39:12.936Z,32.67
2018-04-10T10:41:40.764Z,32.54
2018-04-10T10:44:08.401Z,32.43
2018-04-10T10:46:36.132Z,32.76
2018-04-10T10:49:03.951Z,33.00
2018-04-10T10:51:31.518Z,32.40
2018-04-10T10:53:59.141Z,32.24
2018-04-10T10:56:26.689Z,31.87
2018-04-10T10:58:54.292Z,31.83
2018-04-10T11:01:21.848Z,31.09
2018-04-10T11:03:49.545Z,30.77
2018-04-10T11:06:17.337Z,30.30
2018-04-10T11:08:44.881Z,30.14
2018-04-10T11:11:12.534Z,30.31
2018-04-10T11:13:40.188Z,30.88
2018-04-10T11:16:08.129Z,31.30
2018-04-10T11:18:35.684Z,31.46
2018-04-10T11:21:03.308Z,30.92
2018-04-10T11:23:30.878Z,30.17
2018-04-10T11:25:58.599Z,30.48
2018-04-10T11:28:26.315Z,30.67
2018-04-10T11:30:53.892Z,30.73
2018-04-10T11:33:21.493Z,31.27
2018-04-10T11:35:49.069Z,31.40
2018-04-10T11:38:16.654Z,31.62
2018-04-10T11:40:44.207Z,31.95
2018-04-10T11:43:12.052Z,32.33
2018-04-10T11:45:39.639Z,32.54
2018-04-10T11:48:07.178Z,31.70
2018-04-10T11:50:34.744Z,31.91
2018-04-10T11:53:02.400Z,31.99
2018-04-10T11:55:30.139Z,31.97
2018-04-10T11:57:57.709Z,31.75
2018-04-10T12:00:25.311Z,31.56
2018-04-10T12:02:53.096Z,31.29
2018-04-10T12:05:20.720Z,31.18
2018-04-10T12:07:48.529Z,31.20
2018-04-10T12:10:16.242Z,31.08
2018-04-10T12:12:43.814Z,31.55
2018-04-10T12:15:11.376Z,32.05
2018-04-10T12:17:38.945Z,32.32
2018-04-10T12:20:06.569Z,32.40
2018-04-10T12:22:34.148Z,32.12
2018-04-10T12:25:01.854Z,31.79
2018-04-10T12:27:29.672Z,31.74
2018-04-10T12:29:57.249Z,32.14
2018-04-10T12:32:24.849Z,32.25
2018-04-10T12:34:52.429Z,32.33
2018-04-10T12:37:20.244Z,32.23
2018-04-10T12:39:48.063Z,32.29
2018-04-10T12:42:15.672Z,32.34
2018-04-10T12:44:43.308Z,32.30
2018-04-10T12:47:11.018Z,32.14
2018-04-10T12:49:38.626Z,32.30
2018-04-10T12:52:06.193Z,32.38
2018-04-10T12:54:33.970Z,33.05
2018-04-10T12:57:01.547Z,32.07
2018-04-10T12:59:29.105Z,31.67
2018-04-10T13:01:56.925Z,32.01
2018-04-10T13:04:24.479Z,32.10
2018-04-10T13:06:52.137Z,32.23
2018-04-10T13:09:19.677Z,32.29
2018-04-10T13:11:47.396Z,32.18
2018-04-10T13:14:14.986Z,32.13
2018-04-10T13:16:42.549Z,31.91
2018-04-10T13:19:10.250Z,31.61
2018-04-10T13:21:37.906Z,31.74
2018-04-10T13:24:05.554Z,31.96
2018-04-10T13:26:33.120Z,32.26
2018-04-10T13:29:01.024Z,32.24
2018-04-10T13:31:28.840Z,32.00
2018-04-10T13:33:56.556Z,31.92
2018-04-10T13:36:24.138Z,31.72
2018-04-10T13:38:51.872Z,31.36
2018-04-10T13:41:19.481Z,30.94
2018-04-10T13:43:47.044Z,30.74
2018-04-10T13:46:14.672Z,30.86
2018-04-10T13:48:42.237Z,31.17
2018-04-10T13:51:10.085Z,31.02
2018-04-10T13:53:37.640Z,30.95
2018-04-10T13:56:05.211Z,30.84
2018-04-10T13:58:32.828Z,30.82
2018-04-10T14:01:00.558Z,30.84
2018-04-10T14:03:28.122Z,30.72
2018-04-10T14:05:55.894Z,30.13
2018-04-10T14:08:23.532Z,29.87
2018-04-10T14:10:51.093Z,29.64
2018-04-10T14:13:18.739Z,29.41
2018-04-10T14:15:46.465Z,29.37
2018-04-10T14:18:14.028Z,29.19
2018-04-10T14:20:41.803Z,29.29
2018-04-10T14:23:09.359Z,29.63
2018-04-10T14:25:36.940Z,29.81
2018-04-10T14:28:04.547Z,29.97
2018-04-10T14:30:32.331Z,30.26
2018-04-10T14:32:59.892Z,30.65
2018-04-10T14:35:27.544Z,30.83
2018-04-10T14:37:55.108Z,30.86
2018-04-10T14:40:22.948Z,30.98
2018-04-10T14:42:50.645Z,31.10
2018-04-10T14:45:18.216Z,31.03
2018-04-10T14:47:45.792Z,30.97
2018-04-10T14:50:13.520Z,31.17
2018-04-10T14:52:41.160Z,31.22
2018-04-10T14:55:08.712Z,31.41
2018-04-10T14:57:36.317Z,31.49
2018-04-10T15:00:04.098Z,30.94
2018-04-10T15:02:31.911Z,30.13
2018-04-10T15:04:59.484Z,30.03
2018-04-10T15:07:27.035Z,29.71
2018-04-10T15:09:54.596Z,29.87
2018-04-10T15:12:22.380Z,29.87
2018-04-10T15:14:49.994Z,30.09
2018-04-10T15:17:17.732Z,30.17
2018-04-10T15:19:45.537Z,29.75
2018-04-10T15:22:13.106Z,29.32
2018-04-10T15:24:40.672Z,28.94
2018-04-10T15:27:08.691Z,28.55
2018-04-10T15:29:36.308Z,28.28
2018-04-10T15:32:03.873Z,28.08
2018-04-10T15:34:31.438Z,27.89
2018-04-10T15:37:00.874Z,27.65
2018-04-10T15:39:28.687Z,27.49
2018-04-10T15:41:56.249Z,27.31
2018-04-10T15:44:24.023Z,27.00
2018-04-10T15:46:51.708Z,26.79
2018-04-10T15:49:19.369Z,26.53
2018-04-10T15:51:47.085Z,26.32
2018-04-10T15:54:14.897Z,26.10
2018-04-10T15:56:42.451Z,25.93
2018-04-10T15:59:10.293Z,25.77
2018-04-10T16:01:37.844Z,25.66
2018-04-10T16:04:05.418Z,25.60
2018-04-10T16:06:34.201Z,25.56
2018-04-10T16:09:02.009Z,25.47
2018-04-10T16:11:29.602Z,25.42
2018-04-10T16:13:57.211Z,25.38
2018-04-10T16:16:24.819Z,25.33
2018-04-10T16:18:52.365Z,25.28
2018-04-10T16:21:21.103Z,25.28
2018-04-10T16:23:48.922Z,25.25
2018-04-10T16:26:16.479Z,25.20
2018-04-10T16:28:44.062Z,25.11
2018-04-10T16:31:11.635Z,25.03
2018-04-10T16:33:39.192Z,24.96
2018-04-10T16:36:07.010Z,24.91
2018-04-10T16:38:34.568Z,24.83
2018-04-10T16:41:02.136Z,24.73
2018-04-10T16:43:29.964Z,24.63
2018-04-10T16:45:57.523Z,24.56
2018-04-10T16:48:25.092Z,24.47
2018-04-10T16:50:52.931Z,24.40
2018-04-10T16:53:20.484Z,24.30
2018-04-10T16:55:48.058Z,24.24
2018-04-10T16:58:15.612Z,24.18
2018-04-10T17:00:43.390Z,24.11
2018-04-10T17:03:10.947Z,24.01
2018-04-10T17:05:38.700Z,23.91
2018-04-10T17:08:06.312Z,23.83
2018-04-10T17:10:33.880Z,23.70
2018-04-10T17:13:01.683Z,23.68
2018-04-10T17:15:29.248Z,23.52
2018-04-10T17:17:56.827Z,23.43
2018-04-10T17:20:24.421Z,23.38
2018-04-10T17:22:52.072Z,23.33
2018-04-10T17:25:19.655Z,23.20
2018-04-10T17:27:47.279Z,23.10
2018-04-10T17:30:14.881Z,23.06
2018-04-10T17:32:42.624Z,23.07
2018-04-10T17:35:10.443Z,22.94
2018-04-10T17:37:38.052Z,22.82
2018-04-10T17:40:05.628Z,22.73
2018-04-10T17:42:33.181Z,22.65
2018-04-10T17:45:00.799Z,22.56
2018-04-10T17:47:28.368Z,22.48
2018-04-10T17:49:55.940Z,22.40
2018-04-10T17:52:23.645Z,22.40
2018-04-10T17:54:51.388Z,22.39
2018-04-10T17:57:18.994Z,22.32
2018-04-10T17:59:46.924Z,22.30
2018-04-10T18:02:14.540Z,22.27
2018-04-10T18:04:42.211Z,22.25
2018-04-10T18:07:09.844Z,22.26
2018-04-10T18:09:37.403Z,22.25
2018-04-10T18:12:05.214Z,22.28
2018-04-10T18:14:32.779Z,22.30
2018-04-10T18:17:00.549Z,22.28
2018-04-10T18:19:28.299Z,22.24
2018-04-10T18:21:56.079Z,22.18
2018-04-10T18:24:23.698Z,22.15
2018-04-10T18:26:51.408Z,22.12
2018-04-10T18:29:19.023Z,22.19
2018-04-10T18:31:46.759Z,22.16
2018-04-10T18:34:14.315Z,22.17
2018-04-10T18:36:41.942Z,22.20
2018-04-10T18:39:09.617Z,22.17
2018-04-10T18:41:37.446Z,22.12
2018-04-10T18:44:05.004Z,22.15
2018-04-10T18:46:32.581Z,22.13
2018-04-10T18:49:00.387Z,22.07
2018-04-10T18:51:28.153Z,21.94
2018-04-10T18:53:55.924Z,21.87
2018-04-10T18:56:23.743Z,21.75
2018-04-10T18:58:51.320Z,21.67
2018-04-10T19:01:19.100Z,21.59
2018-04-10T19:03:46.677Z,21.52
2018-04-10T19:06:14.405Z,21.42
2018-04-10T19:08:42.084Z,21.40
2018-04-10T19:11:09.668Z,21.44
2018-04-10T19:13:37.470Z,21.43
2018-04-10T19:16:05.173Z,21.38
2018-04-10T19:18:32.905Z,21.34
2018-04-10T19:21:00.724Z,21.38
2018-04-10T19:23:28.280Z,21.35
2018-04-10T19:25:55.844Z,21.32
2018-04-10T19:28:23.678Z,21.30
2018-04-10T19:30:51.487Z,21.30
2018-04-10T19:33:19.043Z,21.24
2018-04-10T19:35:46.596Z,21.24
2018-04-10T19:38:14.164Z,21.19
2018-04-10T19:40:41.968Z,21.15
2018-04-10T19:43:09.786Z,21.08
2018-04-10T19:45:37.348Z,21.12
2018-04-10T19:48:04.935Z,21.11
2018-04-10T19:50:32.558Z,21.06
2018-04-10T19:53:00.168Z,21.00
2018-04-10T19:55:27.731Z,20.91
2018-04-10T19:57:55.306Z,20.79
2018-04-10T20:00:22.879Z,20.65
2018-04-10T20:02:50.629Z,20.60
2018-04-10T20:05:18.233Z,20.47
2018-04-10T20:07:45.832Z,20.38
2018-04-10T20:10:13.480Z,20.26
2018-04-10T20:12:41.185Z,20.19
2018-04-10T20:15:08.920Z,20.17
2018-04-10T20:17:36.739Z,20.12
2018-04-10T20:20:04.398Z,20.16
2018-04-10T20:22:32.148Z,20.23
2018-04-10T20:24:59.722Z,20.40
2018-04-10T20:27:27.415Z,20.35
2018-04-10T20:29:55.131Z,20.31
2018-04-10T20:32:22.948Z,20.22
2018-04-10T20:34:50.503Z,20.15
2018-04-10T20:37:18.251Z,20.08
2018-04-10T20:39:45.819Z,20.08
2018-04-10T20:42:13.621Z,20.00
2018-04-10T20:44:41.237Z,19.95
2018-04-10T20:47:09.057Z,19.92
2018-04-10T20:49:36.788Z,19.88
2018-04-10T20:52:04.381Z,19.80
2018-04-10T20:54:32.020Z,19.77
2018-04-10T20:56:59.615Z,19.69
2018-04-10T20:59:27.173Z,19.61
2018-04-10T21:01:54.743Z,19.54
2018-04-10T21:04:22.483Z,19.55
2018-04-10T21:06:50.053Z,19.45
2018-04-10T21:09:17.625Z,19.44
2018-04-10T21:11:45.192Z,19.42
2018-04-10T21:14:12.738Z,19.36
2018-04-10T21:16:40.356Z,19.34
2018-04-10T21:19:08.093Z,19.30
2018-04-10T21:21:35.811Z,19.36
2018-04-10T21:24:03.417Z,19.37
2018-04-10T21:26:30.980Z,19.37
2018-04-10T21:28:58.549Z,19.42
2018-04-10T21:31:26.147Z,19.46
2018-04-10T21:33:53.888Z,19.67
2018-04-10T21:36:21.472Z,19.85
2018-04-10T21:41:22.769Z,19.96
2018-04-10T21:43:50.455Z,20.01
2018-04-10T21:46:18.212Z,20.01
2018-04-10T21:48:45.774Z,20.04
2018-04-10T21:51:13.530Z,20.12
2018-04-10T21:53:41.086Z,20.12
2018-04-10T21:56:08.653Z,20.05
2018-04-10T21:58:36.216Z,20.01
2018-04-10T22:01:03.784Z,19.95
2018-04-10T22:03:31.344Z,19.90
2018-04-10T22:05:58.956Z,19.91
2018-04-10T22:08:26.503Z,19.92
2018-04-10T22:10:54.117Z,19.95
2018-04-10T22:13:21.660Z,19.94
2018-04-10T22:15:49.427Z,19.91
2018-04-10T22:18:16.992Z,19.85
2018-04-10T22:20:44.764Z,19.83
2018-04-10T22:23:12.581Z,19.82
2018-04-10T22:25:40.140Z,19.74
2018-04-10T22:28:07.983Z,19.65
2018-04-10T22:30:35.706Z,19.53
2018-04-10T22:33:03.248Z,19.49
2018-04-10T22:35:30.831Z,19.43
2018-04-10T22:37:58.438Z,19.48
2018-04-10T22:40:26.023Z,19.47
2018-04-10T22:42:53.584Z,19.42
2018-04-10T22:45:21.197Z,19.36
2018-04-10T22:47:48.930Z,19.26
2018-04-10T22:50:16.489Z,19.28
2018-04-10T22:52:44.065Z,19.27
2018-04-10T22:55:11.642Z,19.24
2018-04-10T22:57:39.405Z,19.21
2018-04-10T23:00:07.221Z,19.19
2018-04-10T23:02:34.788Z,19.17
2018-04-10T23:05:02.478Z,19.10
2018-04-10T23:07:30.103Z,19.06
2018-04-10T23:09:57.907Z,19.03
2018-04-10T23:12:25.526Z,19.02
2018-04-10T23:14:53.142Z,19.01
2018-04-10T23:17:20.875Z,18.92
2018-04-10T23:19:48.445Z,18.88
2018-04-10T23:22:16.001Z,18.85
2018-04-10T23:24:43.834Z,18.78
2018-04-10T23:27:11.440Z,18.74
2018-04-10T23:29:39.236Z,18.74
2018-04-10T23:32:06.952Z,18.70
2018-04-10T23:34:34.645Z,18.62
2018-04-10T23:37:02.433Z,18.58
2018-04-10T23:39:29.973Z,18.63
2018-04-10T23:41:57.552Z,18.66
2018-04-10T23:44:25.148Z,18.67
2018-04-10T23:46:52.712Z,18.66
2018-04-10T23:49:20.273Z,18.57
2018-04-10T23:51:47.847Z,18.48
2018-04-10T23:54:15.382Z,18.43
2018-04-10T23:56:42.928Z,18.38
2018-04-10T23:59:10.492Z,18.31
